Messwerte Eiken

Temperatur

Temperatur
°C
1516280400 14.00 14.00 9.7
1516284000 15.00 15.00 9.8
1516287600 16.00 16.00 10.0
1516291200 17.00 17.00 10.0
1516294800 18.00 18.00 10.0
1516298400 19.00 19.00 10.1
1516302000 20.00 20.00 10.1
1516305600 21.00 21.00 9.1
1516309200 22.00 22.00 8.0
1516312800 23.00 23.00 7.3
1516316400 0.00 0.00 7.7
1516320000 1.00 1.00 7.8
1516323600 2.00 2.00 7.3
1516327200 3.00 3.00 7.7
1516330800 4.00 4.00 8.1
1516334400 5.00 5.00 6.4
1516338000 6.00 6.00 5.7
1516341600 7.00 7.00 5.7
1516345200 8.00 8.00
1516348800 9.00 9.00
1516352400 10.00 10.00 5.4
1516356000 11.00 11.00 5.6
1516359600 12.00 12.00 5.8
1516363200 13.00 13.00 6.8

Wir danken unserem Partner: Landi Eiken

Aktuellste Messwerte

Wettercharakter
Wetter: trüb und nass
Temperatur
5.4 °C
Feuchtigkeit
77 %
Wind
17 km/hWindrichtung: Nord
Böen
39 km/h
Niederschlag
0.6 mm
Luftdruck
1014.4 hPa
Globalstrahlung
100 W/m²
Messzeit: 19. Januar 2018, 14.00Datenquelle: MeteoNews Partner, Landi Eiken

Weitere Messstationen in der Nähe

Messstation Temperatur Entfernung
Schwörstadt 5.0 °C 11 km
Möhlin 3.7 °C 11 km
Oltingen 2.2 °C 13 km
Rünenberg 4.3 °C 14 km
Häfelfingen 5.4 °C 17 km
Zunzgen-Steinenweg 6.5 °C 17 km
Zunzgen 6.6 °C 17 km

Niederschlag

Niederschlagsmenge
mm
1516280400 14.00 13.00 - 14.00 0.0
1516284000 15.00 14.00 - 15.00 0.0
1516287600 16.00 15.00 - 16.00 0.0
1516291200 17.00 16.00 - 17.00 0.0
1516294800 18.00 17.00 - 18.00 0.0
1516298400 19.00 18.00 - 19.00 0.0
1516302000 20.00 19.00 - 20.00 0.0
1516305600 21.00 20.00 - 21.00 5.6
1516309200 22.00 21.00 - 22.00 3.4
1516312800 23.00 22.00 - 23.00 5.6
1516316400 0.00 23.00 - 0.00 3.2
1516320000 1.00 0.00 - 1.00 3.6
1516323600 2.00 1.00 - 2.00 4.6
1516327200 3.00 2.00 - 3.00 0.2
1516330800 4.00 3.00 - 4.00 1.0
1516334400 5.00 4.00 - 5.00 3.4
1516338000 6.00 5.00 - 6.00 2.0
1516341600 7.00 6.00 - 7.00
1516345200 8.00 7.00 - 8.00
1516348800 9.00 8.00 - 9.00
1516352400 10.00 9.00 - 10.00 0.2
1516356000 11.00 10.00 - 11.00 0.2
1516359600 12.00 11.00 - 12.00 0.0
1516363200 13.00 12.00 - 13.00 0.0

Wind

Windrichtung Böen Mittelwind
° km/h km/h
1516280400 14.00 13.00 - 14.00
1516284000 15.00 14.00 - 15.00
1516287600 16.00 15.00 - 16.00
1516291200 17.00 16.00 - 17.00
1516294800 18.00 17.00 - 18.00
1516298400 19.00 18.00 - 19.00
1516302000 20.00 19.00 - 20.00
1516305600 21.00 20.00 - 21.00
1516309200 22.00 21.00 - 22.00
1516312800 23.00 22.00 - 23.00
1516316400 0.00 23.00 - 0.00
1516320000 1.00 0.00 - 1.00
1516323600 2.00 1.00 - 2.00
1516327200 3.00 2.00 - 3.00
1516330800 4.00 3.00 - 4.00
1516334400 5.00 4.00 - 5.00
1516338000 6.00 5.00 - 6.00
1516341600 7.00 6.00 - 7.00
1516345200 8.00 7.00 - 8.00
1516348800 9.00 8.00 - 9.00
1516352400 10.00 9.00 - 10.00
1516356000 11.00 10.00 - 11.00 360° 29 14
1516359600 12.00 11.00 - 12.00 360° 29 12
1516363200 13.00 12.00 - 13.00 360° 29 14

Ihre Wetterstation

Fehlt Ihre Wetterstation auf unserem Portal?

Schreiben Sie an network@meteonews.ch

Klima

Wann ist es am wärmsten? Wann regnet es am wenigsten? Unsere Klimadaten geben Auskunft.

Foto der Station

img